Time;durP1;ratioP1;P1;durP2;ratioP2;P2;SDS_P1;SDS_P2;PMS_P1;PMS_P2;Temp;Humidity;BMP_temperature;BMP_pressure;BME280_temperature;BME280_humidity;BME280_pressure;Samples;Min_cycle;Max_cycle;Signal;HPM_P1;HPM_P2
2021/05/03 04:53:52;;;;;;;3.53;3.23;;;5.90;99.90;;;;;;5278028;22;20491;-50
2021/05/03 04:56:19;;;;;;;5.23;3.30;;;5.90;99.90;;;;;;4958664;29;20541;-49
2021/05/03 04:58:45;;;;;;;9.03;3.30;;;5.90;99.90;;;;;;4958276;29;20837;-52
2021/05/03 05:01:11;;;;;;;3.57;2.90;;;6.00;99.90;;;;;;4958494;29;20468;-54
2021/05/03 05:03:37;;;;;;;4.30;2.67;;;6.00;99.90;;;;;;4958544;29;20452;-53
2021/05/03 05:06:04;;;;;;;5.67;3.40;;;6.00;99.90;;;;;;4958331;29;20845;-55
2021/05/03 05:08:30;;;;;;;4.20;2.67;;;6.00;99.90;;;;;;4958184;29;20917;-53
2021/05/03 05:10:57;;;;;;;4.20;2.67;;;6.00;99.90;;;;;;4958076;29;20458;-50
2021/05/03 05:13:24;;;;;;;6.00;2.90;;;6.00;99.90;;;;;;4958230;29;20486;-53
2021/05/03 05:15:50;;;;;;;2.57;2.37;;;6.10;99.90;;;;;;4958415;29;20444;-52
2021/05/03 05:18:16;;;;;;;4.00;3.23;;;6.10;99.90;;;;;;4957972;29;20460;-47
2021/05/03 05:20:42;;;;;;;6.97;3.70;;;6.20;99.90;;;;;;4957672;28;20455;-47
2021/05/03 05:23:09;;;;;;;5.10;3.03;;;6.30;99.90;;;;;;4958225;29;20451;-52
2021/05/03 05:25:36;;;;;;;3.43;2.47;;;6.20;99.90;;;;;;5422531;23;20500;-52
2021/05/03 05:28:03;;;;;;;5.30;3.40;;;6.40;99.90;;;;;;5011726;28;20477;-49
2021/05/03 05:30:33;;;;;;;6.50;3.77;;;6.40;99.90;;;;;;5011212;28;20481;-53
2021/05/03 05:32:59;;;;;;;5.17;3.83;;;6.40;99.90;;;;;;5006434;28;20484;-50
2021/05/03 05:35:26;;;;;;;4.10;2.83;;;6.50;99.90;;;;;;5011705;28;20816;-49
2021/05/03 05:37:52;;;;;;;14.03;3.57;;;6.50;99.90;;;;;;5012860;28;20450;-50
2021/05/03 05:40:18;;;;;;;6.10;4.30;;;6.50;99.90;;;;;;5001885;28;20781;-48
2021/05/03 05:42:45;;;;;;;5.30;3.20;;;6.50;99.90;;;;;;4997210;28;20461;-51
2021/05/03 05:45:13;;;;;;;3.00;2.70;;;6.50;99.90;;;;;;4997361;28;20442;-49
2021/05/03 05:47:39;;;;;;;5.07;2.77;;;6.50;99.90;;;;;;4998185;28;20450;-51
2021/05/03 05:50:06;;;;;;;5.10;2.90;;;6.50;99.90;;;;;;5005790;28;20473;-51
2021/05/03 05:52:33;;;;;;;4.23;2.90;;;6.50;99.90;;;;;;5018560;28;20471;-51
2021/05/03 05:54:59;;;;;;;5.30;3.73;;;6.60;99.90;;;;;;5012302;28;20470;-54
2021/05/03 05:57:25;;;;;;;5.03;3.37;;;6.70;99.90;;;;;;5008174;28;20443;-53
2021/05/03 05:59:53;;;;;;;5.87;3.37;;;6.90;99.90;;;;;;4985926;28;20473;-53
2021/05/03 06:02:20;;;;;;;7.27;3.00;;;7.20;99.90;;;;;;4986467;28;20461;-50
2021/05/03 06:04:46;;;;;;;6.57;2.97;;;7.30;99.90;;;;;;5010259;28;20961;-56
2021/05/03 06:07:13;;;;;;;5.50;3.40;;;7.20;99.90;;;;;;5009118;28;20466;-56
2021/05/03 06:09:39;;;;;;;4.20;2.97;;;7.30;99.90;;;;;;5016894;28;20453;-50
2021/05/03 06:12:06;;;;;;;4.13;3.20;;;7.50;99.90;;;;;;5025620;28;20934;-50
2021/05/03 06:14:33;;;;;;;7.00;3.90;;;7.60;99.90;;;;;;4990591;28;20561;-50
2021/05/03 06:16:59;;;;;;;7.00;3.53;;;7.60;99.90;;;;;;4989780;28;20851;-56
2021/05/03 06:19:26;;;;;;;3.53;2.60;;;7.70;99.90;;;;;;4986999;28;20443;-50
2021/05/03 06:21:52;;;;;;;3.70;2.43;;;7.90;99.90;;;;;;4985080;28;20451;-52
2021/05/03 06:24:18;;;;;;;3.53;2.60;;;8.00;99.90;;;;;;4985007;28;20523;-51
2021/05/03 06:26:45;;;;;;;8.47;3.80;;;8.00;99.90;;;;;;4985044;28;20478;-49
2021/05/03 06:29:11;;;;;;;4.57;3.50;;;8.00;99.90;;;;;;4988443;28;20850;-52
2021/05/03 06:31:37;;;;;;;4.70;2.17;;;8.00;99.90;;;;;;5001400;28;20908;-50
2021/05/03 06:34:03;;;;;;;5.13;2.80;;;8.00;99.90;;;;;;5013226;28;20473;-53
2021/05/03 06:36:31;;;;;;;10.23;3.00;;;7.80;99.90;;;;;;5026325;28;20441;-49
2021/05/03 06:38:57;;;;;;;4.10;2.50;;;7.70;99.90;;;;;;5025397;28;20456;-49
2021/05/03 06:41:23;;;;;;;6.83;2.80;;;7.90;99.90;;;;;;5025028;28;20488;-50
2021/05/03 06:43:50;;;;;;;4.00;2.10;;;8.10;99.90;;;;;;5024347;28;20449;-52
2021/05/03 06:46:16;;;;;;;4.63;2.60;;;8.20;99.90;;;;;;5005080;28;20452;-49
2021/05/03 06:48:43;;;;;;;3.73;2.30;;;8.20;99.90;;;;;;5012697;28;20537;-53
2021/05/03 06:51:09;;;;;;;3.20;1.83;;;8.20;99.90;;;;;;5005069;28;20458;-52
2021/05/03 06:53:38;;;;;;;2.80;2.40;;;8.20;99.90;;;;;;5004217;28;20473;-53
2021/05/03 06:56:05;;;;;;;2.70;1.97;;;8.40;99.90;;;;;;5003311;28;20456;-50
2021/05/03 06:58:31;;;;;;;6.73;2.60;;;8.60;99.90;;;;;;5004084;28;20513;-53
2021/05/03 07:00:58;;;;;;;4.60;1.93;;;8.60;99.90;;;;;;5004767;28;20493;-50
2021/05/03 07:03:25;;;;;;;3.80;2.40;;;8.60;99.90;;;;;;5003611;28;20498;-51
2021/05/03 07:05:51;;;;;;;6.53;2.93;;;8.70;99.90;;;;;;5003654;28;20465;-51
2021/05/03 07:08:22;;;;;;;6.90;3.00;;;8.80;99.90;;;;;;5003183;28;20455;-48
2021/05/03 07:10:50;;;;;;;3.47;2.33;;;8.90;99.90;;;;;;5003976;28;20489;-51
2021/05/03 07:13:16;;;;;;;4.77;2.70;;;9.00;99.90;;;;;;5002524;28;20485;-54
2021/05/03 07:15:43;;;;;;;7.10;2.10;;;9.00;99.90;;;;;;5003933;28;20521;-48
2021/05/03 07:18:10;;;;;;;2.80;2.20;;;8.90;99.90;;;;;;5016187;28;20449;-51
2021/05/03 07:20:36;;;;;;;9.03;2.20;;;8.80;99.90;;;;;;5022869;28;20452;-53
2021/05/03 07:23:04;;;;;;;4.93;1.80;;;9.10;99.90;;;;;;5023338;28;20453;-54
2021/05/03 07:25:31;;;;;;;4.73;1.77;;;9.00;99.90;;;;;;5022640;28;20540;-50
2021/05/03 07:27:59;;;;;;;3.67;1.73;;;9.10;99.90;;;;;;5023215;28;20452;-51
2021/05/03 07:30:25;;;;;;;3.20;1.90;;;9.20;99.90;;;;;;5023324;28;20449;-49
2021/05/03 07:32:52;;;;;;;2.30;1.97;;;9.10;99.90;;;;;;5024266;28;20488;-52
2021/05/03 07:35:18;;;;;;;4.90;1.83;;;9.00;99.90;;;;;;5025122;28;20504;-52
2021/05/03 07:37:46;;;;;;;3.93;1.97;;;8.80;99.90;;;;;;5025303;28;20480;-52
2021/05/03 07:40:13;;;;;;;5.23;2.00;;;8.70;99.90;;;;;;5023176;28;21037;-54
2021/05/03 07:42:40;;;;;;;2.50;1.80;;;9.00;99.90;;;;;;5023014;28;20475;-51
2021/05/03 07:45:08;;;;;;;2.83;2.00;;;9.10;99.90;;;;;;5021480;28;20455;-52
2021/05/03 07:47:35;;;;;;;2.70;1.93;;;9.50;99.90;;;;;;5022626;28;20473;-48
2021/05/03 07:50:01;;;;;;;6.30;1.73;;;9.50;99.90;;;;;;5022270;28;20449;-48
2021/05/03 07:52:28;;;;;;;5.47;2.83;;;10.30;99.90;;;;;;5020658;28;20485;-53
2021/05/03 07:54:54;;;;;;;2.70;2.00;;;10.50;99.90;;;;;;5021675;28;20538;-48
2021/05/03 07:57:21;;;;;;;3.07;2.07;;;10.30;99.90;;;;;;5021152;28;20544;-54
2021/05/03 07:59:47;;;;;;;2.03;1.60;;;10.80;99.90;;;;;;5019890;28;20441;-51
2021/05/03 08:02:15;;;;;;;2.60;1.93;;;11.70;99.90;;;;;;5018731;28;20453;-47
2021/05/03 08:04:42;;;;;;;3.50;2.10;;;11.80;99.90;;;;;;5018662;28;20457;-47
2021/05/03 08:07:09;;;;;;;2.90;2.07;;;11.60;99.90;;;;;;5018901;28;20536;-50
2021/05/03 08:09:37;;;;;;;3.00;1.87;;;11.40;99.90;;;;;;5019844;28;20441;-46
2021/05/03 08:12:04;;;;;;;1.83;1.63;;;11.10;99.90;;;;;;5020333;28;21006;-51
2021/05/03 08:14:31;;;;;;;2.20;1.57;;;10.90;99.90;;;;;;5020417;28;20495;-49
2021/05/03 08:17:01;;;;;;;17.60;8.27;;;10.80;99.90;;;;;;5020108;28;20914;-55
2021/05/03 08:19:29;;;;;;;3.67;2.10;;;10.70;99.90;;;;;;5020163;28;20445;-54
2021/05/03 08:21:56;;;;;;;3.90;1.67;;;10.70;99.90;;;;;;5020286;28;20503;-53
2021/05/03 08:24:23;;;;;;;3.80;2.00;;;10.80;99.90;;;;;;5020322;28;20467;-51
2021/05/03 08:26:49;;;;;;;2.40;1.90;;;10.80;99.90;;;;;;5019747;28;20487;-52
2021/05/03 08:29:16;;;;;;;6.50;1.93;;;10.90;99.90;;;;;;5019301;28;20480;-55
2021/05/03 08:31:43;;;;;;;2.40;1.50;;;11.00;99.90;;;;;;5018508;28;20449;-56
2021/05/03 08:34:09;;;;;;;2.43;1.70;;;11.30;99.90;;;;;;5019187;28;20513;-57
2021/05/03 08:36:37;;;;;;;3.63;2.10;;;11.30;99.90;;;;;;5019637;28;20511;-51
2021/05/03 08:39:04;;;;;;;2.20;1.43;;;11.30;99.90;;;;;;5018400;28;20461;-55
2021/05/03 08:41:31;;;;;;;2.20;1.60;;;12.30;99.90;;;;;;5017268;28;20444;-50
2021/05/03 08:43:57;;;;;;;2.57;1.60;;;13.30;99.90;;;;;;5017460;28;20902;-48
2021/05/03 08:46:28;;;;;;;2.27;1.53;;;14.00;99.90;;;;;;5017527;28;20452;-54
2021/05/03 08:49:00;;;;;;;2.80;1.93;;;13.30;99.90;;;;;;5018125;28;20464;-54
2021/05/03 08:51:36;;;;;;;7.83;3.30;;;12.40;99.90;;;;;;5018550;28;20453;-54
2021/05/03 08:54:10;;;;;;;3.30;1.60;;;11.80;99.90;;;;;;5019180;28;20456;-50
2021/05/03 08:56:37;;;;;;;2.40;1.87;;;12.50;99.90;;;;;;5021070;28;20444;-51
2021/05/03 08:59:04;;;;;;;2.37;1.60;;;13.10;99.90;;;;;;5020728;28;20457;-52
2021/05/03 09:01:31;;;;;;;3.20;1.70;;;13.60;99.90;;;;;;5020850;28;20899;-52
2021/05/03 09:03:59;;;;;;;2.47;1.73;;;13.60;99.90;;;;;;5020956;28;20460;-51
2021/05/03 09:06:26;;;;;;;2.00;1.60;;;12.70;99.90;;;;;;5021615;28;20453;-52
2021/05/03 09:09:02;;;;;;;3.70;1.80;;;12.40;99.90;;;;;;5022341;28;20476;-50
2021/05/03 09:11:31;;;;;;;4.50;1.53;;;12.00;99.90;;;;;;5022382;28;20459;-50
2021/05/03 09:14:10;;;;;;;5.63;1.70;;;12.00;99.90;;;;;;5021765;28;20519;-55
2021/05/03 09:16:43;;;;;;;3.13;1.63;;;12.00;99.90;;;;;;5021147;28;20572;-48
2021/05/03 09:19:12;;;;;;;2.60;1.47;;;11.60;99.90;;;;;;5021738;28;20486;-48
2021/05/03 09:21:39;;;;;;;3.20;1.70;;;11.20;99.90;;;;;;5021942;28;20452;-49
2021/05/03 09:24:09;;;;;;;3.57;1.60;;;10.80;99.90;;;;;;5022632;28;20937;-56
2021/05/03 09:26:40;;;;;;;3.10;1.50;;;10.50;99.90;;;;;;5022111;28;20966;-53
2021/05/03 09:29:42;;;;;;;2.27;1.90;;;10.20;99.90;;;;;;5023927;28;20483;-48
2021/05/03 09:32:11;;;;;;;2.37;1.97;;;9.90;99.90;;;;;;4963505;29;20459;-49
2021/05/03 09:34:39;;;;;;;2.17;1.63;;;10.00;99.90;;;;;;4962457;29;20476;-55
2021/05/03 09:37:25;;;;;;;2.30;1.57;;;11.50;99.90;;;;;;4990013;28;20448;-53
2021/05/03 09:39:58;;;;;;;3.80;3.30;;;13.10;99.90;;;;;;5019828;28;20548;-49
2021/05/03 09:42:48;;;;;;;5.63;1.27;;;13.60;99.90;;;;;;5020253;28;20456;-53
2021/05/03 09:45:17;;;;;;;3.83;1.80;;;13.50;99.20;;;;;;5019723;28;20457;-55
2021/05/03 09:47:44;;;;;;;1.70;1.13;;;13.10;97.70;;;;;;5019970;28;20452;-54
2021/05/03 09:50:13;;;;;;;1.40;1.10;;;12.30;98.10;;;;;;5020452;28;20467;-50
2021/05/03 09:52:40;;;;;;;3.03;2.00;;;11.90;98.80;;;;;;5020908;28;20449;-50
2021/05/03 09:55:32;;;;;;;5.43;1.20;;;12.00;99.90;;;;;;5020845;28;20492;-51
2021/05/03 09:58:10;;;;;;;1.40;1.10;;;11.80;99.70;;;;;;5020821;28;20543;-50
2021/05/03 10:00:39;;;;;;;1.70;1.60;;;11.30;99.90;;;;;;5022031;28;20956;-52
2021/05/03 10:03:28;;;;;;;4.03;1.53;;;11.40;99.90;;;;;;5021307;28;20477;-53
2021/05/03 10:05:55;;;;;;;3.73;1.60;;;12.00;99.90;;;;;;5022068;28;20445;-52
2021/05/03 10:08:21;;;;;;;2.40;1.57;;;12.50;99.90;;;;;;5021536;28;20582;-53
2021/05/03 10:10:49;;;;;;;1.20;1.00;;;12.70;99.10;;;;;;5020394;28;20457;-53
2021/05/03 10:13:17;;;;;;;3.93;1.50;;;13.20;98.10;;;;;;5020039;28;20487;-50
2021/05/03 10:15:44;;;;;;;4.10;1.50;;;13.60;97.10;;;;;;5019038;28;20485;-50
2021/05/03 10:18:15;;;;;;;1.83;1.40;;;14.30;95.10;;;;;;5018484;28;20456;-52
2021/05/03 10:20:42;;;;;;;1.80;1.40;;;14.00;93.10;;;;;;5019097;28;20465;-53
2021/05/03 10:23:09;;;;;;;1.97;1.77;;;13.50;92.80;;;;;;5019318;28;20911;-52
2021/05/03 10:25:35;;;;;;;2.93;1.80;;;12.80;93.50;;;;;;5019644;28;20500;-52
2021/05/03 10:28:01;;;;;;;2.10;1.90;;;12.20;95.00;;;;;;5020756;28;20457;-54
2021/05/03 10:30:29;;;;;;;6.20;1.63;;;11.50;96.90;;;;;;5020686;28;20833;-52
2021/05/03 10:32:59;;;;;;;5.73;1.37;;;11.30;97.40;;;;;;5020929;28;20456;-51
2021/05/03 10:35:28;;;;;;;5.30;1.20;;;11.20;98.40;;;;;;5020663;28;20485;-50
2021/05/03 10:37:55;;;;;;;1.50;1.20;;;11.30;97.40;;;;;;5021191;28;20518;-52
2021/05/03 10:40:50;;;;;;;1.97;1.70;;;11.40;97.90;;;;;;5003530;28;20472;-52
2021/05/03 10:43:22;;;;;;;4.47;1.50;;;11.40;97.10;;;;;;5020528;28;20484;-56
2021/05/03 10:48:49;;;;;;;3.43;1.40;;;11.40;98.00;;;;;;5009368;28;20440;-53
2021/05/03 10:51:41;;;;;;;5.67;1.73;;;11.50;96.70;;;;;;5018554;28;20581;-55
2021/05/03 10:54:48;;;;;;;4.93;2.50;;;11.40;97.40;;;;;;4999355;28;20442;-57
2021/05/03 10:57:37;;;;;;;1.97;1.20;;;11.40;98.30;;;;;;5000010;28;20458;-53
2021/05/03 11:00:31;;;;;;;1.90;1.40;;;11.70;96.90;;;;;;4999335;28;20632;-54
2021/05/03 11:02:58;;;;;;;7.10;1.80;;;11.80;96.00;;;;;;4998797;28;20438;-54
2021/05/03 11:52:34;;;;;;;2.13;1.40;;;11.60;93.90;;;;;;5153413;23;20490;-50
2021/05/03 11:55:09;;;;;;;1.67;1.20;;;11.50;94.20;;;;;;4999980;28;20474;-51
2021/05/03 11:57:39;;;;;;;1.87;1.20;;;11.50;95.20;;;;;;4996582;28;20532;-52
2021/05/03 12:00:08;;;;;;;1.60;1.03;;;11.60;96.10;;;;;;4995427;28;20473;-54
2021/05/03 12:02:35;;;;;;;2.27;1.80;;;11.70;95.60;;;;;;4996219;28;20481;-54
2021/05/03 12:05:01;;;;;;;2.53;1.53;;;12.00;95.40;;;;;;4993395;28;20521;-53
2021/05/03 12:07:30;;;;;;;4.80;1.73;;;12.20;94.70;;;;;;4996374;28;20438;-48
2021/05/03 12:10:03;;;;;;;2.87;2.33;;;12.20;93.80;;;;;;4997220;28;20442;-49
2021/05/03 12:12:34;;;;;;;2.47;1.73;;;12.20;93.90;;;;;;5000156;28;20452;-51
2021/05/03 12:15:01;;;;;;;1.90;1.50;;;12.20;93.50;;;;;;4995734;28;20477;-51
2021/05/03 12:17:29;;;;;;;3.23;2.20;;;12.20;93.40;;;;;;5005992;28;20438;-51
2021/05/03 12:20:02;;;;;;;1.63;1.23;;;12.10;93.00;;;;;;5006030;28;20526;-51
2021/05/03 12:22:32;;;;;;;2.00;1.37;;;12.10;93.10;;;;;;5005285;28;20477;-53
2021/05/03 12:25:03;;;;;;;3.23;1.30;;;12.30;94.00;;;;;;5001275;28;20446;-50
2021/05/03 12:27:30;;;;;;;2.17;1.53;;;12.40;93.80;;;;;;5002760;28;20533;-49
2021/05/03 12:29:58;;;;;;;2.77;1.53;;;12.50;93.00;;;;;;5003062;28;20461;-52
2021/05/03 12:32:29;;;;;;;2.23;1.10;;;12.60;92.70;;;;;;5001902;28;20438;-51
2021/05/03 12:34:56;;;;;;;2.10;1.60;;;12.50;92.30;;;;;;5008388;28;20481;-54
2021/05/03 12:37:24;;;;;;;1.53;1.43;;;12.30;91.00;;;;;;5009199;28;20481;-52
2021/05/03 12:40:00;;;;;;;2.03;1.60;;;12.20;91.00;;;;;;5003211;28;20504;-52
2021/05/03 12:42:36;;;;;;;3.00;1.70;;;12.10;91.90;;;;;;5001284;28;20438;-52
2021/05/03 12:45:14;;;;;;;2.70;2.10;;;12.30;92.60;;;;;;5000007;28;20489;-51
2021/05/03 12:47:57;;;;;;;8.20;1.60;;;12.40;92.30;;;;;;5001681;28;20510;-55
2021/05/03 12:50:29;;;;;;;1.87;1.60;;;12.50;91.80;;;;;;5001919;28;20493;-54
2021/05/03 12:53:06;;;;;;;1.83;1.30;;;12.40;91.70;;;;;;4996818;28;20992;-56
2021/05/03 12:55:40;;;;;;;5.37;3.40;;;12.30;92.40;;;;;;5000930;28;20479;-55
2021/05/03 12:58:19;;;;;;;1.93;1.53;;;12.10;92.70;;;;;;5000853;28;20430;-57
2021/05/03 13:01:44;;;;;;;2.30;1.43;;;12.00;93.30;;;;;;5003504;28;20450;-57
2021/05/03 13:04:50;;;;;;;1.30;1.10;;;11.80;94.60;;;;;;5000798;28;20493;-57
2021/05/03 13:07:31;;;;;;;1.90;1.60;;;11.40;96.80;;;;;;4941248;29;20426;-55
2021/05/03 13:10:38;;;;;;;2.70;1.63;;;11.40;97.20;;;;;;4941608;29;20468;-55
2021/05/03 13:30:22;;;;;;;3.30;2.00;;;11.10;99.90;;;;;;4977667;28;20423;-56
2021/05/03 13:32:49;;;;;;;5.53;2.17;;;11.20;99.90;;;;;;4977736;28;20474;-56
2021/05/03 13:35:15;;;;;;;3.53;2.27;;;11.20;99.90;;;;;;4977270;28;20514;-56
2021/05/03 13:37:42;;;;;;;2.23;1.90;;;11.10;99.90;;;;;;4984903;28;20490;-50
2021/05/03 13:40:10;;;;;;;5.40;1.90;;;11.20;99.90;;;;;;4993114;28;20485;-54
2021/05/03 13:42:37;;;;;;;2.40;1.80;;;11.10;99.90;;;;;;4978265;28;20818;-55
2021/05/03 13:45:05;;;;;;;5.33;2.60;;;11.10;99.90;;;;;;4981253;28;20497;-56
2021/05/03 13:47:32;;;;;;;3.10;2.63;;;11.10;99.90;;;;;;4996605;28;20489;-55
2021/05/03 13:49:59;;;;;;;2.43;2.23;;;11.00;99.90;;;;;;5005990;28;20446;-55
2021/05/03 13:52:26;;;;;;;2.30;1.80;;;11.00;99.90;;;;;;5005156;28;20488;-54
2021/05/03 13:54:52;;;;;;;4.40;3.70;;;11.00;99.90;;;;;;4999620;28;20482;-54
2021/05/03 13:57:20;;;;;;;5.43;3.00;;;11.00;99.90;;;;;;4984085;28;20459;-55
2021/05/03 13:59:47;;;;;;;3.27;2.97;;;10.90;99.90;;;;;;4979894;28;20486;-52
2021/05/03 14:02:13;;;;;;;4.40;3.63;;;10.80;99.90;;;;;;4977988;28;20510;-56
2021/05/03 14:04:40;;;;;;;13.40;5.53;;;10.80;99.90;;;;;;4996629;28;20488;-56
2021/05/03 14:07:08;;;;;;;4.87;3.53;;;10.80;99.90;;;;;;4997912;28;20449;-53
2021/05/03 14:09:35;;;;;;;5.77;4.40;;;11.00;99.90;;;;;;4997595;28;20457;-55
2021/05/03 14:12:02;;;;;;;4.07;3.67;;;11.10;99.90;;;;;;4997462;28;20465;-49
2021/05/03 14:14:31;;;;;;;4.97;3.70;;;11.10;99.90;;;;;;4993950;28;20477;-51
2021/05/03 14:17:01;;;;;;;6.10;4.37;;;11.30;99.90;;;;;;4996004;28;20450;-53
2021/05/03 14:19:31;;;;;;;4.30;3.90;;;11.40;99.90;;;;;;4987853;28;20930;-54
2021/05/03 14:21:59;;;;;;;5.60;4.83;;;11.40;99.90;;;;;;4996381;28;20524;-55
2021/05/03 14:24:25;;;;;;;4.90;4.17;;;11.40;99.90;;;;;;4997004;28;20469;-56
2021/05/03 14:26:54;;;;;;;6.17;3.93;;;11.30;99.90;;;;;;4999473;28;20454;-52
2021/05/03 14:29:25;;;;;;;4.87;4.37;;;11.40;99.90;;;;;;4996525;28;21093;-50
2021/05/03 14:31:55;;;;;;;8.30;5.20;;;11.50;99.90;;;;;;4995292;28;20446;-55
2021/05/03 14:34:26;;;;;;;6.87;4.80;;;11.70;99.90;;;;;;4995909;28;20858;-52
2021/05/03 14:36:53;;;;;;;6.30;4.57;;;11.80;99.90;;;;;;4995850;28;20458;-55
2021/05/03 14:39:20;;;;;;;5.50;3.90;;;11.80;99.90;;;;;;4996312;28;20462;-53
2021/05/03 14:41:47;;;;;;;5.73;4.10;;;11.90;99.90;;;;;;4995097;28;20450;-55
2021/05/03 14:44:15;;;;;;;5.30;3.90;;;11.80;99.90;;;;;;4990256;28;20477;-55
2021/05/03 14:46:45;;;;;;;4.77;4.00;;;11.60;99.90;;;;;;4996856;28;20458;-57
2021/05/03 14:49:38;;;;;;;7.27;4.73;;;11.70;99.90;;;;;;4995962;28;20458;-56
2021/05/03 14:52:07;;;;;;;6.90;3.93;;;11.90;99.90;;;;;;4995093;28;20789;-54
2021/05/03 14:54:39;;;;;;;4.47;3.33;;;11.90;99.90;;;;;;4990878;28;20458;-46
2021/05/03 14:57:07;;;;;;;4.53;3.37;;;11.80;99.90;;;;;;4996187;28;20462;-46
2021/05/03 14:59:35;;;;;;;3.83;3.10;;;11.70;99.90;;;;;;4996377;28;20457;-46
2021/05/03 15:02:02;;;;;;;6.73;4.43;;;11.70;99.90;;;;;;4994953;28;20509;-46
2021/05/03 15:04:29;;;;;;;6.73;4.33;;;11.70;99.90;;;;;;4995590;28;20450;-47
2021/05/03 15:07:00;;;;;;;4.80;3.90;;;11.80;99.90;;;;;;4994773;28;20462;-48
2021/05/03 15:09:27;;;;;;;6.00;4.00;;;12.00;99.90;;;;;;4995154;28;20465;-47
2021/05/03 15:11:56;;;;;;;7.43;3.80;;;12.10;99.90;;;;;;4995774;28;20461;-48
2021/05/03 15:14:34;;;;;;;5.93;4.50;;;12.10;99.90;;;;;;4996904;28;20474;-48
2021/05/03 15:19:44;;;;;;;6.23;4.57;;;12.20;99.90;;;;;;4993160;28;20778;-49
2021/05/03 15:22:11;;;;;;;4.17;3.77;;;12.30;99.90;;;;;;4998385;28;20520;-47
2021/05/03 15:24:37;;;;;;;5.43;4.60;;;12.50;99.90;;;;;;4995804;28;20446;-44
2021/05/03 15:27:09;;;;;;;4.43;4.00;;;12.40;99.90;;;;;;4994453;28;20515;-47
2021/05/03 15:29:43;;;;;;;7.90;4.30;;;12.40;99.90;;;;;;4994807;28;20442;-47
2021/05/03 15:32:38;;;;;;;5.90;4.43;;;12.40;99.90;;;;;;4990843;28;20831;-48
2021/05/03 15:35:05;;;;;;;5.30;4.10;;;12.30;99.90;;;;;;4994602;28;20594;-49
2021/05/03 15:37:32;;;;;;;6.33;4.40;;;12.20;99.90;;;;;;4994528;28;20450;-49
2021/05/03 15:39:59;;;;;;;4.50;3.57;;;12.10;99.90;;;;;;4994756;28;20912;-47
2021/05/03 15:42:27;;;;;;;5.17;4.37;;;12.10;99.90;;;;;;4993669;28;20468;-45
2021/05/03 15:44:55;;;;;;;7.83;4.40;;;12.00;99.90;;;;;;4994882;28;20537;-50
2021/05/03 15:47:21;;;;;;;7.37;3.97;;;12.00;99.90;;;;;;4994921;28;20465;-44
2021/05/03 15:49:48;;;;;;;4.40;4.00;;;11.80;99.90;;;;;;4994759;28;20504;-48
2021/05/03 15:52:15;;;;;;;6.90;4.40;;;11.60;99.90;;;;;;4993762;28;20478;-44
2021/05/03 15:54:42;;;;;;;4.87;4.37;;;11.40;99.90;;;;;;4995000;28;20850;-51
2021/05/03 15:57:09;;;;;;;5.57;4.43;;;11.30;99.90;;;;;;4995097;28;20469;-48
2021/05/03 15:59:37;;;;;;;6.30;4.60;;;11.50;99.90;;;;;;4994538;28;20485;-50
2021/05/03 16:02:04;;;;;;;7.10;4.40;;;11.50;99.90;;;;;;4992978;28;20818;-47
2021/05/03 16:04:32;;;;;;;9.37;3.70;;;11.60;99.90;;;;;;4995436;28;20939;-48
2021/05/03 16:06:58;;;;;;;8.50;4.03;;;11.70;99.90;;;;;;4998693;28;20453;-46
2021/05/03 16:09:25;;;;;;;6.17;4.57;;;11.70;99.90;;;;;;4998284;28;20556;-46
2021/05/03 16:11:52;;;;;;;5.53;4.53;;;11.60;99.90;;;;;;4997981;28;20469;-46
2021/05/03 16:14:19;;;;;;;8.83;4.40;;;11.60;99.90;;;;;;4998309;28;20461;-47
2021/05/03 16:16:47;;;;;;;8.43;5.20;;;11.60;99.90;;;;;;4997579;28;20557;-48
2021/05/03 16:19:14;;;;;;;5.37;4.57;;;11.60;99.90;;;;;;4997506;28;20461;-49
2021/05/03 16:21:41;;;;;;;5.50;3.93;;;11.70;99.90;;;;;;4997068;28;20434;-49
2021/05/03 16:24:08;;;;;;;5.57;4.17;;;11.70;99.90;;;;;;4998220;28;20465;-52
2021/05/03 16:26:35;;;;;;;5.70;5.00;;;11.80;99.90;;;;;;4998371;28;20766;-47
2021/05/03 16:29:02;;;;;;;6.27;4.80;;;11.80;99.90;;;;;;4999865;28;20805;-47
2021/05/03 16:31:29;;;;;;;5.40;4.23;;;11.90;99.90;;;;;;4999629;28;20446;-50
2021/05/03 16:33:56;;;;;;;7.23;5.50;;;12.00;99.90;;;;;;5000483;28;20454;-49
2021/05/03 16:36:22;;;;;;;6.80;4.57;;;12.00;99.90;;;;;;4999137;28;20532;-47
2021/05/03 16:38:49;;;;;;;5.97;4.50;;;12.00;99.90;;;;;;4999886;28;20441;-50
2021/05/03 16:41:16;;;;;;;8.10;4.40;;;12.10;99.90;;;;;;4998254;28;20528;-50
2021/05/03 16:43:42;;;;;;;6.63;4.83;;;12.10;99.90;;;;;;4999167;28;20462;-46
2021/05/03 16:46:09;;;;;;;4.90;4.03;;;12.10;99.90;;;;;;4999446;28;20508;-47
2021/05/03 16:48:40;;;;;;;6.27;4.83;;;12.10;99.90;;;;;;4998994;28;20454;-49
2021/05/03 16:51:07;;;;;;;4.77;4.30;;;12.10;99.90;;;;;;4993441;28;20511;-51
2021/05/03 16:53:34;;;;;;;6.57;5.10;;;12.00;99.90;;;;;;4998900;28;20958;-49
2021/05/03 16:56:01;;;;;;;5.20;4.20;;;12.00;99.90;;;;;;4998905;28;20485;-49
2021/05/03 16:58:27;;;;;;;7.00;4.70;;;11.90;99.90;;;;;;4998002;28;20460;-50
2021/05/03 17:00:54;;;;;;;7.23;4.90;;;11.80;99.90;;;;;;4997163;28;20465;-47
2021/05/03 17:03:21;;;;;;;5.60;5.10;;;11.80;99.90;;;;;;4996705;28;20446;-56
2021/05/03 17:05:47;;;;;;;4.83;4.00;;;11.80;99.90;;;;;;4996953;28;20891;-48
2021/05/03 17:08:15;;;;;;;5.23;4.73;;;11.60;99.90;;;;;;4997326;28;20531;-50
2021/05/03 17:10:42;;;;;;;6.90;6.17;;;11.60;99.90;;;;;;4996920;28;20484;-49
2021/05/03 17:13:09;;;;;;;5.97;5.40;;;11.60;99.90;;;;;;4996709;28;20453;-51
2021/05/03 17:15:35;;;;;;;5.67;5.10;;;11.60;99.90;;;;;;4996015;28;20485;-50
2021/05/03 17:18:02;;;;;;;6.40;5.30;;;11.50;99.90;;;;;;4996581;28;20456;-48
2021/05/03 17:20:30;;;;;;;7.50;5.57;;;11.30;99.90;;;;;;4996863;28;20458;-47
2021/05/03 17:22:57;;;;;;;7.43;4.83;;;11.20;99.90;;;;;;4997123;28;20458;-49
2021/05/03 17:25:24;;;;;;;7.53;6.47;;;11.10;99.90;;;;;;4996670;28;20965;-48
2021/05/03 17:27:51;;;;;;;8.50;6.73;;;11.10;99.90;;;;;;4996840;28;20450;-49
2021/05/03 17:30:18;;;;;;;7.77;6.13;;;11.00;99.90;;;;;;4996469;28;20457;-50
2021/05/03 17:32:45;;;;;;;8.00;5.77;;;10.90;99.90;;;;;;4997078;28;20464;-45
2021/05/03 17:35:12;;;;;;;7.07;6.10;;;10.80;99.90;;;;;;4996612;28;20489;-48
2021/05/03 17:37:39;;;;;;;8.00;7.20;;;10.70;99.90;;;;;;4996439;28;20450;-47
2021/05/03 17:40:07;;;;;;;15.00;9.83;;;10.70;99.90;;;;;;4996695;28;20457;-45
2021/05/03 17:42:35;;;;;;;16.47;11.17;;;10.60;99.90;;;;;;4996898;28;20457;-45
2021/05/03 17:45:01;;;;;;;9.17;6.03;;;10.60;99.90;;;;;;5000055;28;20450;-49
2021/05/03 17:47:28;;;;;;;11.73;7.07;;;10.60;99.90;;;;;;4994928;28;20454;-46
2021/05/03 17:49:54;;;;;;;5.90;5.30;;;10.60;99.90;;;;;;4998865;28;20465;-44
2021/05/03 17:52:21;;;;;;;7.47;5.43;;;10.60;99.90;;;;;;4999757;28;20478;-48
2021/05/03 17:54:49;;;;;;;9.10;6.70;;;10.50;99.90;;;;;;5001435;28;20462;-50
2021/05/03 17:57:16;;;;;;;16.50;8.57;;;10.60;99.90;;;;;;4997609;28;20462;-46
2021/05/03 17:59:43;;;;;;;8.93;8.03;;;10.60;99.90;;;;;;5000227;28;20822;-47
2021/05/03 18:02:10;;;;;;;9.80;6.93;;;10.50;99.90;;;;;;4998022;28;20450;-50
2021/05/03 18:04:37;;;;;;;9.13;6.20;;;10.50;99.90;;;;;;4998892;28;20446;-46
2021/05/03 18:07:03;;;;;;;7.70;6.80;;;10.50;99.90;;;;;;4998925;28;20456;-47
2021/05/03 18:09:30;;;;;;;7.77;7.00;;;10.50;99.90;;;;;;4998096;28;20457;-49
2021/05/03 18:11:57;;;;;;;7.97;7.17;;;10.50;99.90;;;;;;4996449;28;20525;-49
2021/05/03 18:14:27;;;;;;;7.70;6.40;;;10.40;99.90;;;;;;4997229;28;20499;-49
2021/05/03 18:16:54;;;;;;;9.70;7.00;;;10.40;99.90;;;;;;4997278;28;20493;-49
2021/05/03 18:19:26;;;;;;;8.03;7.10;;;10.40;99.90;;;;;;4998994;28;20517;-46
2021/05/03 18:21:53;;;;;;;10.00;7.03;;;10.40;99.90;;;;;;4997420;28;20508;-48
2021/05/03 18:24:20;;;;;;;8.50;6.47;;;10.40;99.90;;;;;;4997703;28;20462;-49
2021/05/03 18:26:48;;;;;;;11.73;6.30;;;10.40;99.90;;;;;;4996873;28;20501;-46
2021/05/03 18:29:15;;;;;;;9.03;7.47;;;10.30;99.90;;;;;;4997094;28;20601;-44
2021/05/03 18:31:43;;;;;;;8.60;7.50;;;10.30;99.90;;;;;;4997016;28;20484;-49
2021/05/03 18:34:11;;;;;;;8.93;6.77;;;10.20;99.90;;;;;;4997526;28;20522;-45
2021/05/03 18:36:37;;;;;;;10.40;8.50;;;10.20;99.90;;;;;;4997556;28;20493;-49
2021/05/03 18:39:05;;;;;;;12.73;7.97;;;10.20;99.90;;;;;;4997672;28;20462;-45
2021/05/03 18:41:36;;;;;;;11.23;8.77;;;10.10;99.90;;;;;;4995615;28;20466;-49
2021/05/03 18:44:03;;;;;;;10.17;7.83;;;10.10;99.90;;;;;;4988138;28;20480;-49
2021/05/03 18:46:29;;;;;;;8.43;7.13;;;10.00;99.90;;;;;;4996962;28;20508;-49
2021/05/03 18:48:57;;;;;;;10.43;8.33;;;10.00;99.90;;;;;;4997422;28;20525;-49
2021/05/03 18:51:24;;;;;;;28.60;16.90;;;10.00;99.90;;;;;;4991081;28;20591;-46
2021/05/03 18:53:51;;;;;;;23.57;12.80;;;10.00;99.90;;;;;;4994546;28;20454;-46
2021/05/03 18:56:17;;;;;;;14.90;10.70;;;9.90;99.90;;;;;;4994076;28;21509;-46
2021/05/03 18:58:44;;;;;;;13.80;11.00;;;9.90;99.90;;;;;;4994397;28;20524;-48
2021/05/03 19:01:10;;;;;;;11.50;9.20;;;9.90;99.90;;;;;;4993166;28;20510;-48